sensor_id;sensor_type;location;lat;lon;timestamp;P1;durP1;ratioP1;P2;durP2;ratioP2
3777;SDS011;1904;50.076;8.660;2023-06-19T00:00:37;16.83;;;10.67;;
3777;SDS011;1904;50.076;8.660;2023-06-19T00:03:04;12.43;;;10.17;;
3777;SDS011;1904;50.076;8.660;2023-06-19T00:05:30;14.53;;;10.50;;
3777;SDS011;1904;50.076;8.660;2023-06-19T00:07:56;21.90;;;11.10;;
3777;SDS011;1904;50.076;8.660;2023-06-19T00:16:31;13.83;;;10.07;;
3777;SDS011;1904;50.076;8.660;2023-06-19T00:22:19;14.60;;;10.13;;
3777;SDS011;1904;50.076;8.660;2023-06-19T00:24:56;21.70;;;11.10;;
3777;SDS011;1904;50.076;8.660;2023-06-19T00:27:25;15.37;;;10.50;;
3777;SDS011;1904;50.076;8.660;2023-06-19T00:33:13;15.70;;;10.50;;
3777;SDS011;1904;50.076;8.660;2023-06-19T00:38:38;13.43;;;10.00;;
3777;SDS011;1904;50.076;8.660;2023-06-19T00:41:04;18.83;;;12.47;;
3777;SDS011;1904;50.076;8.660;2023-06-19T00:43:31;16.80;;;10.73;;
3777;SDS011;1904;50.076;8.660;2023-06-19T00:45:57;13.10;;;10.43;;
3777;SDS011;1904;50.076;8.660;2023-06-19T00:48:24;13.73;;;10.80;;
3777;SDS011;1904;50.076;8.660;2023-06-19T00:50:56;13.93;;;10.97;;
3777;SDS011;1904;50.076;8.660;2023-06-19T00:53:22;15.53;;;10.80;;
3777;SDS011;1904;50.076;8.660;2023-06-19T00:55:49;14.90;;;10.27;;
3777;SDS011;1904;50.076;8.660;2023-06-19T00:58:19;13.90;;;10.87;;
3777;SDS011;1904;50.076;8.660;2023-06-19T01:00:46;17.47;;;10.40;;
3777;SDS011;1904;50.076;8.660;2023-06-19T01:03:12;14.80;;;11.13;;
3777;SDS011;1904;50.076;8.660;2023-06-19T01:05:38;13.37;;;10.87;;
3777;SDS011;1904;50.076;8.660;2023-06-19T01:08:12;13.53;;;10.37;;
3777;SDS011;1904;50.076;8.660;2023-06-19T01:20:38;22.00;;;11.30;;
3777;SDS011;1904;50.076;8.660;2023-06-19T01:26:25;16.10;;;11.27;;
3777;SDS011;1904;50.076;8.660;2023-06-19T01:40:38;17.70;;;10.10;;
3777;SDS011;1904;50.076;8.660;2023-06-19T01:43:08;14.13;;;11.00;;
3777;SDS011;1904;50.076;8.660;2023-06-19T01:45:35;14.33;;;10.17;;
3777;SDS011;1904;50.076;8.660;2023-06-19T01:48:01;13.03;;;9.87;;
3777;SDS011;1904;50.076;8.660;2023-06-19T01:50:27;16.20;;;11.17;;
3777;SDS011;1904;50.076;8.660;2023-06-19T01:52:56;14.07;;;10.57;;
3777;SDS011;1904;50.076;8.660;2023-06-19T01:55:25;17.00;;;10.20;;
3777;SDS011;1904;50.076;8.660;2023-06-19T02:04:49;13.90;;;10.70;;
3777;SDS011;1904;50.076;8.660;2023-06-19T02:07:19;13.70;;;10.90;;
3777;SDS011;1904;50.076;8.660;2023-06-19T02:09:56;19.83;;;10.53;;
3777;SDS011;1904;50.076;8.660;2023-06-19T02:12:25;12.70;;;9.87;;
3777;SDS011;1904;50.076;8.660;2023-06-19T02:15:02;16.10;;;11.13;;
3777;SDS011;1904;50.076;8.660;2023-06-19T02:17:37;13.40;;;9.63;;
3777;SDS011;1904;50.076;8.660;2023-06-19T02:28:56;12.20;;;10.30;;
3777;SDS011;1904;50.076;8.660;2023-06-19T02:34:31;14.90;;;10.97;;
3777;SDS011;1904;50.076;8.660;2023-06-19T02:52:31;16.10;;;10.97;;
3777;SDS011;1904;50.076;8.660;2023-06-19T02:58:26;15.90;;;11.37;;
3777;SDS011;1904;50.076;8.660;2023-06-19T03:00:55;13.40;;;11.10;;
3777;SDS011;1904;50.076;8.660;2023-06-19T03:09:55;14.57;;;11.50;;
3777;SDS011;1904;50.076;8.660;2023-06-19T03:12:25;18.33;;;11.33;;
3777;SDS011;1904;50.076;8.660;2023-06-19T03:14:55;14.10;;;11.20;;
3777;SDS011;1904;50.076;8.660;2023-06-19T03:17:26;14.70;;;11.63;;
3777;SDS011;1904;50.076;8.660;2023-06-19T03:19:55;15.90;;;11.20;;
3777;SDS011;1904;50.076;8.660;2023-06-19T03:22:32;15.50;;;11.47;;
3777;SDS011;1904;50.076;8.660;2023-06-19T03:28:26;14.70;;;10.83;;
3777;SDS011;1904;50.076;8.660;2023-06-19T03:30:55;13.77;;;11.07;;
3777;SDS011;1904;50.076;8.660;2023-06-19T03:36:39;22.13;;;11.90;;
3777;SDS011;1904;50.076;8.660;2023-06-19T03:39:04;14.07;;;11.70;;
3777;SDS011;1904;50.076;8.660;2023-06-19T03:56:43;15.93;;;11.67;;
3777;SDS011;1904;50.076;8.660;2023-06-19T04:02:30;13.23;;;10.47;;
3777;SDS011;1904;50.076;8.660;2023-06-19T04:11:13;20.40;;;10.37;;
3777;SDS011;1904;50.076;8.660;2023-06-19T04:22:26;16.20;;;9.90;;
3777;SDS011;1904;50.076;8.660;2023-06-19T04:24:55;11.40;;;9.00;;
3777;SDS011;1904;50.076;8.660;2023-06-19T04:33:26;14.00;;;10.37;;
3777;SDS011;1904;50.076;8.660;2023-06-19T04:38:51;12.10;;;8.60;;
3777;SDS011;1904;50.076;8.660;2023-06-19T04:41:20;13.43;;;8.83;;
3777;SDS011;1904;50.076;8.660;2023-06-19T04:43:46;11.10;;;9.30;;
3777;SDS011;1904;50.076;8.660;2023-06-19T04:46:26;10.37;;;8.97;;
3777;SDS011;1904;50.076;8.660;2023-06-19T04:48:56;10.63;;;8.90;;
3777;SDS011;1904;50.076;8.660;2023-06-19T04:54:22;16.17;;;8.13;;
3777;SDS011;1904;50.076;8.660;2023-06-19T05:09:26;9.33;;;5.80;;
3777;SDS011;1904;50.076;8.660;2023-06-19T05:18:07;7.70;;;6.20;;
3777;SDS011;1904;50.076;8.660;2023-06-19T05:48:51;14.40;;;4.60;;
3777;SDS011;1904;50.076;8.660;2023-06-19T05:54:51;4.97;;;4.43;;
3777;SDS011;1904;50.076;8.660;2023-06-19T06:00:43;6.13;;;4.90;;
3777;SDS011;1904;50.076;8.660;2023-06-19T06:06:07;5.87;;;4.23;;
3777;SDS011;1904;50.076;8.660;2023-06-19T06:11:55;5.23;;;4.60;;
3777;SDS011;1904;50.076;8.660;2023-06-19T06:17:44;11.23;;;4.90;;
3777;SDS011;1904;50.076;8.660;2023-06-19T06:20:14;7.50;;;4.70;;
3777;SDS011;1904;50.076;8.660;2023-06-19T06:22:56;4.37;;;4.00;;
3777;SDS011;1904;50.076;8.660;2023-06-19T06:25:38;5.80;;;4.13;;
3777;SDS011;1904;50.076;8.660;2023-06-19T06:34:14;3.87;;;3.57;;
3777;SDS011;1904;50.076;8.660;2023-06-19T06:36:51;4.13;;;3.63;;
3777;SDS011;1904;50.076;8.660;2023-06-19T06:45:43;5.03;;;3.93;;
3777;SDS011;1904;50.076;8.660;2023-06-19T06:57:32;3.83;;;3.40;;
3777;SDS011;1904;50.076;8.660;2023-06-19T07:12:49;3.10;;;2.90;;
3777;SDS011;1904;50.076;8.660;2023-06-19T07:18:37;4.50;;;3.47;;
3777;SDS011;1904;50.076;8.660;2023-06-19T07:21:03;3.43;;;2.93;;
3777;SDS011;1904;50.076;8.660;2023-06-19T07:26:57;3.80;;;3.43;;
3777;SDS011;1904;50.076;8.660;2023-06-19T07:38:54;3.70;;;3.40;;
3777;SDS011;1904;50.076;8.660;2023-06-19T07:44:44;5.13;;;3.60;;
3777;SDS011;1904;50.076;8.660;2023-06-19T08:02:56;3.97;;;3.30;;
3777;SDS011;1904;50.076;8.660;2023-06-19T08:12:08;12.77;;;4.13;;
3777;SDS011;1904;50.076;8.660;2023-06-19T08:14:44;5.53;;;3.30;;
3777;SDS011;1904;50.076;8.660;2023-06-19T08:17:20;4.27;;;3.87;;
3777;SDS011;1904;50.076;8.660;2023-06-19T08:20:02;5.63;;;3.97;;
3777;SDS011;1904;50.076;8.660;2023-06-19T08:25:32;4.47;;;3.20;;
3777;SDS011;1904;50.076;8.660;2023-06-19T08:37:26;3.80;;;3.50;;
3777;SDS011;1904;50.076;8.660;2023-06-19T08:39:52;5.60;;;3.70;;
3777;SDS011;1904;50.076;8.660;2023-06-19T08:42:32;6.57;;;3.33;;
3777;SDS011;1904;50.076;8.660;2023-06-19T08:51:41;8.20;;;4.90;;
3777;SDS011;1904;50.076;8.660;2023-06-19T08:57:14;8.70;;;4.50;;
3777;SDS011;1904;50.076;8.660;2023-06-19T09:06:09;4.60;;;4.20;;
3777;SDS011;1904;50.076;8.660;2023-06-19T09:34:08;4.20;;;3.73;;
3777;SDS011;1904;50.076;8.660;2023-06-19T09:39:34;8.37;;;4.00;;
3777;SDS011;1904;50.076;8.660;2023-06-19T09:45:21;4.33;;;3.53;;
3777;SDS011;1904;50.076;8.660;2023-06-19T09:54:14;4.20;;;3.80;;
3777;SDS011;1904;50.076;8.660;2023-06-19T09:56:50;4.03;;;3.67;;
3777;SDS011;1904;50.076;8.660;2023-06-19T10:09:05;9.80;;;3.37;;
3777;SDS011;1904;50.076;8.660;2023-06-19T10:21:44;6.50;;;3.47;;
3777;SDS011;1904;50.076;8.660;2023-06-19T10:30:32;7.30;;;3.80;;
3777;SDS011;1904;50.076;8.660;2023-06-19T10:32:59;7.33;;;3.90;;
3777;SDS011;1904;50.076;8.660;2023-06-19T10:35:27;3.80;;;3.50;;
3777;SDS011;1904;50.076;8.660;2023-06-19T10:37:53;3.43;;;3.23;;
3777;SDS011;1904;50.076;8.660;2023-06-19T10:40:19;3.90;;;3.60;;
3777;SDS011;1904;50.076;8.660;2023-06-19T10:42:45;4.17;;;3.83;;
3777;SDS011;1904;50.076;8.660;2023-06-19T10:45:12;7.00;;;3.70;;
3777;SDS011;1904;50.076;8.660;2023-06-19T10:47:41;6.73;;;3.17;;
3777;SDS011;1904;50.076;8.660;2023-06-19T10:50:10;3.53;;;3.23;;
3777;SDS011;1904;50.076;8.660;2023-06-19T10:52:41;6.00;;;3.50;;
3777;SDS011;1904;50.076;8.660;2023-06-19T10:55:08;3.20;;;3.00;;
3777;SDS011;1904;50.076;8.660;2023-06-19T10:57:35;4.40;;;4.00;;
3777;SDS011;1904;50.076;8.660;2023-06-19T11:00:00;3.80;;;3.30;;
3777;SDS011;1904;50.076;8.660;2023-06-19T11:02:31;6.20;;;3.33;;
3777;SDS011;1904;50.076;8.660;2023-06-19T11:04:57;12.83;;;3.30;;
3777;SDS011;1904;50.076;8.660;2023-06-19T11:07:23;4.57;;;3.23;;
3777;SDS011;1904;50.076;8.660;2023-06-19T11:09:49;3.53;;;3.33;;
3777;SDS011;1904;50.076;8.660;2023-06-19T11:12:26;4.23;;;3.47;;
3777;SDS011;1904;50.076;8.660;2023-06-19T11:14:51;5.57;;;3.70;;
3777;SDS011;1904;50.076;8.660;2023-06-19T11:17:20;7.87;;;4.13;;
3777;SDS011;1904;50.076;8.660;2023-06-19T11:19:47;5.50;;;3.90;;
3777;SDS011;1904;50.076;8.660;2023-06-19T11:25:20;3.93;;;3.60;;
3777;SDS011;1904;50.076;8.660;2023-06-19T11:28:02;3.30;;;3.00;;
3777;SDS011;1904;50.076;8.660;2023-06-19T11:36:38;4.13;;;2.70;;
3777;SDS011;1904;50.076;8.660;2023-06-19T11:39:09;3.10;;;2.90;;
3777;SDS011;1904;50.076;8.660;2023-06-19T11:41:38;3.40;;;3.20;;
3777;SDS011;1904;50.076;8.660;2023-06-19T11:44:20;3.70;;;3.40;;
3777;SDS011;1904;50.076;8.660;2023-06-19T11:46:46;5.50;;;3.10;;
3777;SDS011;1904;50.076;8.660;2023-06-19T11:49:12;3.30;;;3.00;;
3777;SDS011;1904;50.076;8.660;2023-06-19T11:51:39;4.33;;;3.33;;
3777;SDS011;1904;50.076;8.660;2023-06-19T11:54:08;6.93;;;4.07;;
3777;SDS011;1904;50.076;8.660;2023-06-19T11:56:35;4.87;;;3.40;;
3777;SDS011;1904;50.076;8.660;2023-06-19T11:59:01;3.90;;;3.43;;
3777;SDS011;1904;50.076;8.660;2023-06-19T12:01:28;5.43;;;3.63;;
3777;SDS011;1904;50.076;8.660;2023-06-19T12:03:59;4.77;;;3.83;;
3777;SDS011;1904;50.076;8.660;2023-06-19T12:06:25;7.10;;;4.20;;
3777;SDS011;1904;50.076;8.660;2023-06-19T12:08:52;3.70;;;3.40;;
3777;SDS011;1904;50.076;8.660;2023-06-19T12:11:17;4.40;;;4.00;;
3777;SDS011;1904;50.076;8.660;2023-06-19T12:13:43;4.70;;;3.27;;
3777;SDS011;1904;50.076;8.660;2023-06-19T12:16:13;6.90;;;3.30;;
3777;SDS011;1904;50.076;8.660;2023-06-19T12:18:50;4.70;;;3.10;;
3777;SDS011;1904;50.076;8.660;2023-06-19T12:21:20;5.13;;;3.63;;
3777;SDS011;1904;50.076;8.660;2023-06-19T12:23:45;3.50;;;3.20;;
3777;SDS011;1904;50.076;8.660;2023-06-19T12:26:13;3.40;;;3.10;;
3777;SDS011;1904;50.076;8.660;2023-06-19T12:28:38;3.77;;;3.23;;
3777;SDS011;1904;50.076;8.660;2023-06-19T12:31:04;3.73;;;3.30;;
3777;SDS011;1904;50.076;8.660;2023-06-19T12:33:30;3.80;;;3.50;;
3777;SDS011;1904;50.076;8.660;2023-06-19T12:35:56;3.73;;;3.47;;
3777;SDS011;1904;50.076;8.660;2023-06-19T12:38:22;4.40;;;3.63;;
3777;SDS011;1904;50.076;8.660;2023-06-19T12:40:47;6.03;;;3.37;;
3777;SDS011;1904;50.076;8.660;2023-06-19T12:43:13;3.53;;;3.23;;
3777;SDS011;1904;50.076;8.660;2023-06-19T12:45:44;4.70;;;3.03;;
3777;SDS011;1904;50.076;8.660;2023-06-19T12:57:09;3.70;;;3.23;;
3777;SDS011;1904;50.076;8.660;2023-06-19T12:59:36;3.30;;;3.00;;
3777;SDS011;1904;50.076;8.660;2023-06-19T13:02:08;4.60;;;2.90;;
3777;SDS011;1904;50.076;8.660;2023-06-19T13:07:55;6.13;;;2.90;;
3777;SDS011;1904;50.076;8.660;2023-06-19T13:17:05;3.20;;;2.90;;
3777;SDS011;1904;50.076;8.660;2023-06-19T13:19:32;10.30;;;2.87;;
3777;SDS011;1904;50.076;8.660;2023-06-19T13:25:19;2.97;;;2.73;;
3777;SDS011;1904;50.076;8.660;2023-06-19T13:30:50;3.20;;;2.90;;
3777;SDS011;1904;50.076;8.660;2023-06-19T13:36:38;3.20;;;2.90;;
3777;SDS011;1904;50.076;8.660;2023-06-19T13:42:27;4.03;;;2.60;;
3777;SDS011;1904;50.076;8.660;2023-06-19T13:48:15;3.93;;;2.90;;
3777;SDS011;1904;50.076;8.660;2023-06-19T13:50:56;2.83;;;2.60;;
3777;SDS011;1904;50.076;8.660;2023-06-19T13:53:32;2.30;;;2.20;;
3777;SDS011;1904;50.076;8.660;2023-06-19T13:55:58;2.53;;;2.33;;
3777;SDS011;1904;50.076;8.660;2023-06-19T14:07:20;6.93;;;2.83;;
3777;SDS011;1904;50.076;8.660;2023-06-19T14:13:10;2.30;;;2.20;;
3777;SDS011;1904;50.076;8.660;2023-06-19T14:18:42;5.77;;;2.60;;
3777;SDS011;1904;50.076;8.660;2023-06-19T14:24:30;7.90;;;3.03;;
3777;SDS011;1904;50.076;8.660;2023-06-19T14:30:18;1.93;;;1.80;;
3777;SDS011;1904;50.076;8.660;2023-06-19T14:35:40;2.50;;;2.30;;
3777;SDS011;1904;50.076;8.660;2023-06-19T14:38:06;2.53;;;2.30;;
3777;SDS011;1904;50.076;8.660;2023-06-19T14:40:38;2.60;;;2.50;;
3777;SDS011;1904;50.076;8.660;2023-06-19T14:43:04;2.40;;;2.20;;
3777;SDS011;1904;50.076;8.660;2023-06-19T14:45:30;2.50;;;2.30;;
3777;SDS011;1904;50.076;8.660;2023-06-19T14:47:56;1.90;;;1.80;;
3777;SDS011;1904;50.076;8.660;2023-06-19T14:53:43;2.50;;;1.90;;
3777;SDS011;1904;50.076;8.660;2023-06-19T14:56:09;2.20;;;2.10;;
3777;SDS011;1904;50.076;8.660;2023-06-19T14:58:35;2.60;;;2.40;;
3777;SDS011;1904;50.076;8.660;2023-06-19T15:01:01;2.70;;;2.50;;
3777;SDS011;1904;50.076;8.660;2023-06-19T15:03:27;2.47;;;2.27;;
3777;SDS011;1904;50.076;8.660;2023-06-19T15:05:53;2.57;;;2.37;;
3777;SDS011;1904;50.076;8.660;2023-06-19T15:08:19;2.13;;;2.00;;
3777;SDS011;1904;50.076;8.660;2023-06-19T15:10:48;2.90;;;2.37;;
3777;SDS011;1904;50.076;8.660;2023-06-19T15:13:20;1.90;;;1.80;;
3777;SDS011;1904;50.076;8.660;2023-06-19T15:15:56;9.10;;;3.20;;
3777;SDS011;1904;50.076;8.660;2023-06-19T15:18:26;2.13;;;2.03;;
3777;SDS011;1904;50.076;8.660;2023-06-19T15:20:56;3.23;;;2.40;;
3777;SDS011;1904;50.076;8.660;2023-06-19T15:26:50;2.43;;;2.30;;
3777;SDS011;1904;50.076;8.660;2023-06-19T15:32:56;2.33;;;2.13;;
3777;SDS011;1904;50.076;8.660;2023-06-19T15:47:26;2.10;;;2.00;;
3777;SDS011;1904;50.076;8.660;2023-06-19T15:49:56;2.60;;;2.40;;
3777;SDS011;1904;50.076;8.660;2023-06-19T16:01:40;4.87;;;2.60;;
3777;SDS011;1904;50.076;8.660;2023-06-19T16:06:56;6.20;;;2.67;;
3777;SDS011;1904;50.076;8.660;2023-06-19T16:09:26;2.57;;;2.37;;
3777;SDS011;1904;50.076;8.660;2023-06-19T16:11:56;2.30;;;2.10;;
3777;SDS011;1904;50.076;8.660;2023-06-19T16:14:22;2.33;;;2.13;;
3777;SDS011;1904;50.076;8.660;2023-06-19T16:16:56;5.90;;;2.33;;
3777;SDS011;1904;50.076;8.660;2023-06-19T16:19:22;4.60;;;2.53;;
3777;SDS011;1904;50.076;8.660;2023-06-19T16:34:26;2.57;;;2.33;;
3777;SDS011;1904;50.076;8.660;2023-06-19T16:36:56;2.53;;;2.30;;
3777;SDS011;1904;50.076;8.660;2023-06-19T16:39:32;2.60;;;2.50;;
3777;SDS011;1904;50.076;8.660;2023-06-19T16:42:01;6.50;;;2.80;;
3777;SDS011;1904;50.076;8.660;2023-06-19T16:44:28;2.73;;;2.50;;
3777;SDS011;1904;50.076;8.660;2023-06-19T16:47:14;5.70;;;2.70;;
3777;SDS011;1904;50.076;8.660;2023-06-19T16:49:56;4.40;;;4.10;;
3777;SDS011;1904;50.076;8.660;2023-06-19T16:52:26;4.03;;;3.10;;
3777;SDS011;1904;50.076;8.660;2023-06-19T16:54:56;4.80;;;2.93;;
3777;SDS011;1904;50.076;8.660;2023-06-19T16:57:26;11.90;;;2.60;;
3777;SDS011;1904;50.076;8.660;2023-06-19T16:59:56;3.80;;;2.57;;
3777;SDS011;1904;50.076;8.660;2023-06-19T17:02:26;3.07;;;2.60;;
3777;SDS011;1904;50.076;8.660;2023-06-19T17:07:56;3.00;;;2.67;;
3777;SDS011;1904;50.076;8.660;2023-06-19T17:10:26;3.27;;;3.00;;
3777;SDS011;1904;50.076;8.660;2023-06-19T17:12:56;7.03;;;3.20;;
3777;SDS011;1904;50.076;8.660;2023-06-19T17:15:22;4.93;;;2.63;;
3777;SDS011;1904;50.076;8.660;2023-06-19T17:23:22;11.40;;;4.43;;
3777;SDS011;1904;50.076;8.660;2023-06-19T17:25:56;3.53;;;3.23;;
3777;SDS011;1904;50.076;8.660;2023-06-19T17:28:26;2.80;;;2.60;;
3777;SDS011;1904;50.076;8.660;2023-06-19T17:30:56;4.37;;;3.30;;
3777;SDS011;1904;50.076;8.660;2023-06-19T17:33:26;4.17;;;2.67;;
3777;SDS011;1904;50.076;8.660;2023-06-19T17:35:56;4.40;;;3.37;;
3777;SDS011;1904;50.076;8.660;2023-06-19T17:38:38;5.17;;;2.90;;
3777;SDS011;1904;50.076;8.660;2023-06-19T17:41:08;2.87;;;2.67;;
3777;SDS011;1904;50.076;8.660;2023-06-19T17:53:03;3.37;;;2.60;;
3777;SDS011;1904;50.076;8.660;2023-06-19T18:05:21;3.30;;;3.00;;
3777;SDS011;1904;50.076;8.660;2023-06-19T18:07:46;2.50;;;2.37;;
3777;SDS011;1904;50.076;8.660;2023-06-19T18:10:15;3.67;;;2.90;;
3777;SDS011;1904;50.076;8.660;2023-06-19T18:16:17;3.43;;;3.13;;
3777;SDS011;1904;50.076;8.660;2023-06-19T18:18:43;3.43;;;3.13;;
3777;SDS011;1904;50.076;8.660;2023-06-19T18:40:03;4.90;;;2.70;;
3777;SDS011;1904;50.076;8.660;2023-06-19T18:45:32;7.33;;;3.57;;
3777;SDS011;1904;50.076;8.660;2023-06-19T18:54:22;4.73;;;3.40;;
3777;SDS011;1904;50.076;8.660;2023-06-19T18:56:48;5.77;;;3.23;;
3777;SDS011;1904;50.076;8.660;2023-06-19T18:59:15;4.70;;;3.70;;
3777;SDS011;1904;50.076;8.660;2023-06-19T19:01:44;6.27;;;3.47;;
3777;SDS011;1904;50.076;8.660;2023-06-19T19:04:26;3.93;;;3.60;;
3777;SDS011;1904;50.076;8.660;2023-06-19T19:16:14;3.70;;;3.33;;
3777;SDS011;1904;50.076;8.660;2023-06-19T19:18:39;3.57;;;3.20;;
3777;SDS011;1904;50.076;8.660;2023-06-19T19:24:14;4.40;;;3.30;;
3777;SDS011;1904;50.076;8.660;2023-06-19T19:26:45;4.33;;;3.93;;
3777;SDS011;1904;50.076;8.660;2023-06-19T19:32:39;10.03;;;3.87;;
3777;SDS011;1904;50.076;8.660;2023-06-19T19:35:21;4.90;;;4.20;;
3777;SDS011;1904;50.076;8.660;2023-06-19T19:40:51;4.33;;;3.83;;
3777;SDS011;1904;50.076;8.660;2023-06-19T19:54:46;6.93;;;4.10;;
3777;SDS011;1904;50.076;8.660;2023-06-19T19:57:21;6.70;;;4.10;;
3777;SDS011;1904;50.076;8.660;2023-06-19T19:59:46;9.10;;;4.70;;
3777;SDS011;1904;50.076;8.660;2023-06-19T20:02:27;7.20;;;4.40;;
3777;SDS011;1904;50.076;8.660;2023-06-19T20:04:56;4.70;;;4.20;;
3777;SDS011;1904;50.076;8.660;2023-06-19T20:16:18;5.57;;;4.60;;
3777;SDS011;1904;50.076;8.660;2023-06-19T20:18:43;9.13;;;4.50;;
3777;SDS011;1904;50.076;8.660;2023-06-19T20:21:09;5.87;;;3.93;;
3777;SDS011;1904;50.076;8.660;2023-06-19T20:23:34;6.70;;;4.70;;
3777;SDS011;1904;50.076;8.660;2023-06-19T20:28:52;5.63;;;4.77;;
3777;SDS011;1904;50.076;8.660;2023-06-19T20:31:27;9.87;;;4.90;;
3777;SDS011;1904;50.076;8.660;2023-06-19T20:33:52;9.27;;;5.00;;
3777;SDS011;1904;50.076;8.660;2023-06-19T20:36:21;9.90;;;4.57;;
3777;SDS011;1904;50.076;8.660;2023-06-19T20:38:56;6.93;;;5.27;;
3777;SDS011;1904;50.076;8.660;2023-06-19T20:41:23;7.90;;;4.90;;
3777;SDS011;1904;50.076;8.660;2023-06-19T20:43:57;8.80;;;5.10;;
3777;SDS011;1904;50.076;8.660;2023-06-19T20:49:04;6.40;;;5.47;;
3777;SDS011;1904;50.076;8.660;2023-06-19T20:51:33;10.43;;;5.60;;
3777;SDS011;1904;50.076;8.660;2023-06-19T20:53:59;8.77;;;5.17;;
3777;SDS011;1904;50.076;8.660;2023-06-19T20:56:27;9.33;;;5.30;;
3777;SDS011;1904;50.076;8.660;2023-06-19T20:58:56;10.60;;;4.97;;
3777;SDS011;1904;50.076;8.660;2023-06-19T21:01:24;6.20;;;4.90;;
3777;SDS011;1904;50.076;8.660;2023-06-19T21:03:50;12.50;;;5.50;;
3777;SDS011;1904;50.076;8.660;2023-06-19T21:06:16;8.93;;;5.53;;
3777;SDS011;1904;50.076;8.660;2023-06-19T21:08:43;13.20;;;5.47;;
3777;SDS011;1904;50.076;8.660;2023-06-19T21:11:15;11.57;;;5.87;;
3777;SDS011;1904;50.076;8.660;2023-06-19T21:16:33;10.83;;;5.43;;
3777;SDS011;1904;50.076;8.660;2023-06-19T21:21:51;8.93;;;5.17;;
3777;SDS011;1904;50.076;8.660;2023-06-19T21:24:16;9.80;;;5.53;;
3777;SDS011;1904;50.076;8.660;2023-06-19T21:26:50;6.83;;;5.57;;
3777;SDS011;1904;50.076;8.660;2023-06-19T21:29:16;7.90;;;5.50;;
3777;SDS011;1904;50.076;8.660;2023-06-19T21:31:42;6.03;;;5.20;;
3777;SDS011;1904;50.076;8.660;2023-06-19T21:34:08;7.53;;;5.20;;
3777;SDS011;1904;50.076;8.660;2023-06-19T21:36:34;9.20;;;5.17;;
3777;SDS011;1904;50.076;8.660;2023-06-19T21:38:59;7.90;;;5.30;;
3777;SDS011;1904;50.076;8.660;2023-06-19T21:41:25;13.10;;;6.10;;
3777;SDS011;1904;50.076;8.660;2023-06-19T21:43:50;7.63;;;5.00;;
3777;SDS011;1904;50.076;8.660;2023-06-19T21:46:27;6.30;;;5.40;;
3777;SDS011;1904;50.076;8.660;2023-06-19T21:49:03;7.03;;;4.77;;
3777;SDS011;1904;50.076;8.660;2023-06-19T21:51:45;10.30;;;5.47;;
3777;SDS011;1904;50.076;8.660;2023-06-19T21:54:27;6.90;;;5.40;;
3777;SDS011;1904;50.076;8.660;2023-06-19T21:56:57;6.00;;;5.43;;
3777;SDS011;1904;50.076;8.660;2023-06-19T21:59:22;15.17;;;6.10;;
3777;SDS011;1904;50.076;8.660;2023-06-19T22:01:51;10.30;;;5.83;;
3777;SDS011;1904;50.076;8.660;2023-06-19T22:04:33;9.03;;;6.17;;
3777;SDS011;1904;50.076;8.660;2023-06-19T22:07:03;11.77;;;5.33;;
3777;SDS011;1904;50.076;8.660;2023-06-19T22:09:29;7.80;;;5.50;;
3777;SDS011;1904;50.076;8.660;2023-06-19T22:11:57;12.37;;;6.37;;
3777;SDS011;1904;50.076;8.660;2023-06-19T22:14:27;13.90;;;5.80;;
3777;SDS011;1904;50.076;8.660;2023-06-19T22:16:52;8.30;;;6.10;;
3777;SDS011;1904;50.076;8.660;2023-06-19T22:19:18;10.50;;;6.27;;
3777;SDS011;1904;50.076;8.660;2023-06-19T22:21:45;8.63;;;6.03;;
3777;SDS011;1904;50.076;8.660;2023-06-19T22:24:15;12.23;;;5.97;;
3777;SDS011;1904;50.076;8.660;2023-06-19T22:26:40;8.33;;;6.73;;
3777;SDS011;1904;50.076;8.660;2023-06-19T22:29:06;17.13;;;6.27;;
3777;SDS011;1904;50.076;8.660;2023-06-19T22:31:33;8.37;;;5.50;;
3777;SDS011;1904;50.076;8.660;2023-06-19T22:33:58;8.70;;;5.83;;
3777;SDS011;1904;50.076;8.660;2023-06-19T22:36:24;6.80;;;6.10;;
3777;SDS011;1904;50.076;8.660;2023-06-19T22:38:50;7.90;;;6.17;;
3777;SDS011;1904;50.076;8.660;2023-06-19T22:41:21;7.00;;;5.87;;
3777;SDS011;1904;50.076;8.660;2023-06-19T22:43:51;8.07;;;5.67;;
3777;SDS011;1904;50.076;8.660;2023-06-19T22:46:27;9.70;;;6.33;;
3777;SDS011;1904;50.076;8.660;2023-06-19T22:48:57;8.50;;;5.90;;
3777;SDS011;1904;50.076;8.660;2023-06-19T22:51:27;11.50;;;6.80;;
3777;SDS011;1904;50.076;8.660;2023-06-19T22:53:57;9.37;;;6.03;;
3777;SDS011;1904;50.076;8.660;2023-06-19T22:56:33;8.03;;;5.57;;
3777;SDS011;1904;50.076;8.660;2023-06-19T22:58:58;6.00;;;5.30;;
3777;SDS011;1904;50.076;8.660;2023-06-19T23:01:39;6.93;;;6.00;;
3777;SDS011;1904;50.076;8.660;2023-06-19T23:04:15;13.47;;;5.37;;
3777;SDS011;1904;50.076;8.660;2023-06-19T23:06:45;7.60;;;5.60;;
3777;SDS011;1904;50.076;8.660;2023-06-19T23:09:15;7.93;;;5.57;;
3777;SDS011;1904;50.076;8.660;2023-06-19T23:11:45;14.40;;;5.70;;
3777;SDS011;1904;50.076;8.660;2023-06-19T23:14:21;6.03;;;5.03;;
3777;SDS011;1904;50.076;8.660;2023-06-19T23:16:51;5.40;;;4.90;;
3777;SDS011;1904;50.076;8.660;2023-06-19T23:19:27;6.17;;;5.57;;
3777;SDS011;1904;50.076;8.660;2023-06-19T23:21:53;11.43;;;5.90;;
3777;SDS011;1904;50.076;8.660;2023-06-19T23:24:27;6.00;;;5.40;;
3777;SDS011;1904;50.076;8.660;2023-06-19T23:26:53;13.53;;;6.07;;
3777;SDS011;1904;50.076;8.660;2023-06-19T23:29:19;11.67;;;5.93;;
3777;SDS011;1904;50.076;8.660;2023-06-19T23:31:45;11.40;;;5.97;;
3777;SDS011;1904;50.076;8.660;2023-06-19T23:34:15;9.43;;;5.80;;
3777;SDS011;1904;50.076;8.660;2023-06-19T23:36:40;8.40;;;6.43;;
3777;SDS011;1904;50.076;8.660;2023-06-19T23:39:06;9.63;;;6.33;;
3777;SDS011;1904;50.076;8.660;2023-06-19T23:41:33;11.93;;;5.97;;
3777;SDS011;1904;50.076;8.660;2023-06-19T23:44:09;10.07;;;6.13;;
3777;SDS011;1904;50.076;8.660;2023-06-19T23:49:33;11.77;;;6.10;;
3777;SDS011;1904;50.076;8.660;2023-06-19T23:52:03;7.93;;;6.07;;
3777;SDS011;1904;50.076;8.660;2023-06-19T23:54:30;10.10;;;6.20;;
3777;SDS011;1904;50.076;8.660;2023-06-19T23:59:40;8.93;;;6.67;;
